createdAt,value
2018-08-23T00:01:24.343Z,8.77
2018-08-23T00:03:54.219Z,9.30
2018-08-23T00:06:23.824Z,9.57
2018-08-23T00:08:53.712Z,10.13
2018-08-23T00:11:26.183Z,9.00
2018-08-23T00:13:55.893Z,7.70
2018-08-23T00:16:32.424Z,8.57
2018-08-23T00:19:03.100Z,8.70
2018-08-23T00:21:32.763Z,11.10
2018-08-23T00:24:11.278Z,10.10
2018-08-23T00:26:48.652Z,9.40
2018-08-23T00:29:33.357Z,11.83
2018-08-23T00:32:05.157Z,9.93
2018-08-23T00:34:36.186Z,10.00
2018-08-23T00:37:06.295Z,10.63
2018-08-23T00:39:35.979Z,9.57
2018-08-23T00:42:06.971Z,9.03
2018-08-23T00:44:52.255Z,8.60
2018-08-23T00:47:23.671Z,9.77
2018-08-23T00:49:53.166Z,9.47
2018-08-23T00:52:32.327Z,11.10
2018-08-23T00:55:11.524Z,9.37
2018-08-23T00:57:41.183Z,12.23
2018-08-23T01:00:12.596Z,9.97
2018-08-23T01:02:42.343Z,9.33
2018-08-23T01:05:12.041Z,9.53
2018-08-23T01:07:41.800Z,8.90
2018-08-23T01:10:11.461Z,9.10
2018-08-23T01:12:51.298Z,9.60
2018-08-23T01:15:20.916Z,8.87
2018-08-23T01:17:55.037Z,9.40
2018-08-23T01:20:24.672Z,10.53
2018-08-23T01:23:00.827Z,9.07
2018-08-23T01:25:34.026Z,8.97
2018-08-23T01:28:03.640Z,9.63
2018-08-23T01:30:33.254Z,8.43
2018-08-23T01:33:02.922Z,9.13
2018-08-23T01:35:32.487Z,9.00
2018-08-23T01:38:02.151Z,8.97
2018-08-23T01:40:31.823Z,9.73
2018-08-23T01:43:01.439Z,9.13
2018-08-23T01:45:31.056Z,8.80
2018-08-23T01:48:01.261Z,9.53
2018-08-23T01:50:30.845Z,9.33
2018-08-23T01:53:00.445Z,9.50
2018-08-23T01:55:30.007Z,9.67
2018-08-23T01:57:59.589Z,9.00
2018-08-23T02:00:31.493Z,9.50
2018-08-23T02:03:01.896Z,9.43
2018-08-23T02:05:31.631Z,8.83
2018-08-23T02:08:01.326Z,12.03
2018-08-23T02:10:31.102Z,9.90
2018-08-23T02:13:00.659Z,10.33
2018-08-23T02:15:42.146Z,9.03
2018-08-23T02:18:11.753Z,9.93
2018-08-23T02:20:41.362Z,9.87
2018-08-23T02:23:11.000Z,8.40
2018-08-23T02:25:40.682Z,9.03
2018-08-23T02:28:11.789Z,9.07
2018-08-23T02:30:53.795Z,9.00
2018-08-23T02:33:23.449Z,8.77
2018-08-23T02:36:22.812Z,8.67
2018-08-23T02:39:01.231Z,8.43
2018-08-23T02:41:31.133Z,8.23
2018-08-23T02:44:00.680Z,8.70
2018-08-23T02:46:32.133Z,9.60
2018-08-23T02:49:01.703Z,9.37
2018-08-23T02:51:43.461Z,9.23
2018-08-23T02:54:14.243Z,8.97
2018-08-23T02:56:49.047Z,9.13
2018-08-23T02:59:18.726Z,9.60
2018-08-23T03:01:49.431Z,9.07
2018-08-23T03:04:20.223Z,12.60
2018-08-23T03:06:57.267Z,9.80
2018-08-23T03:09:29.046Z,9.77
2018-08-23T03:11:59.823Z,9.20
2018-08-23T03:14:30.049Z,10.13
2018-08-23T03:17:25.262Z,10.10
2018-08-23T03:20:06.095Z,9.50
2018-08-23T03:22:36.047Z,8.43
2018-08-23T03:25:07.157Z,9.27
2018-08-23T03:27:38.076Z,9.17
2018-08-23T03:30:11.495Z,9.13
2018-08-23T03:32:41.203Z,8.77
2018-08-23T03:35:10.952Z,11.73
2018-08-23T03:37:40.605Z,10.07
2018-08-23T03:40:11.067Z,9.67
2018-08-23T03:42:40.876Z,9.83
2018-08-23T03:45:41.553Z,10.37
2018-08-23T03:48:11.140Z,11.50
2018-08-23T03:50:45.994Z,9.53
2018-08-23T03:53:17.130Z,9.23
2018-08-23T03:55:57.204Z,9.63
2018-08-23T03:58:28.689Z,9.10
2018-08-23T04:01:04.001Z,9.33
2018-08-23T04:03:34.299Z,9.63
2018-08-23T04:06:18.194Z,11.50
2018-08-23T04:08:49.058Z,8.93
2018-08-23T04:11:19.062Z,8.90
2018-08-23T04:13:49.503Z,9.23
2018-08-23T04:16:25.952Z,10.13
2018-08-23T04:18:55.998Z,9.40
2018-08-23T04:21:25.904Z,9.00
2018-08-23T04:23:55.489Z,9.20
2018-08-23T04:26:26.356Z,9.33
2018-08-23T04:28:55.885Z,10.27
2018-08-23T04:31:25.520Z,11.23
2018-08-23T04:33:55.362Z,10.40
2018-08-23T04:36:31.531Z,9.83
2018-08-23T04:39:02.371Z,9.07
2018-08-23T04:41:32.882Z,9.53
2018-08-23T04:44:05.511Z,10.73
2018-08-23T04:46:35.388Z,9.47
2018-08-23T04:49:06.628Z,9.53
2018-08-23T04:51:37.409Z,9.43
2018-08-23T04:54:07.313Z,8.90
2018-08-23T04:56:36.874Z,9.77
2018-08-23T04:59:06.544Z,12.27
2018-08-23T05:01:36.108Z,9.87
2018-08-23T05:04:05.712Z,9.30
2018-08-23T05:06:35.216Z,8.87
2018-08-23T05:09:05.218Z,10.00
2018-08-23T05:11:34.893Z,9.63
2018-08-23T05:14:04.488Z,9.47
2018-08-23T05:16:34.328Z,10.40
2018-08-23T05:19:03.915Z,8.60
2018-08-23T05:21:33.512Z,9.13
2018-08-23T05:24:08.191Z,9.50
2018-08-23T05:26:37.845Z,9.20
2018-08-23T05:29:08.557Z,9.20
2018-08-23T05:31:38.289Z,8.83
2018-08-23T05:34:09.134Z,9.80
2018-08-23T05:36:38.695Z,8.60
2018-08-23T05:39:09.505Z,13.43
2018-08-23T05:41:39.038Z,9.07
2018-08-23T05:44:13.825Z,9.23
2018-08-23T05:46:49.473Z,8.83
2018-08-23T05:49:19.115Z,11.67
2018-08-23T05:51:48.849Z,9.03
2018-08-23T05:54:18.577Z,9.73
2018-08-23T05:56:48.291Z,9.10
2018-08-23T05:59:19.753Z,8.77
2018-08-23T06:01:51.570Z,8.87
2018-08-23T06:04:32.172Z,9.80
2018-08-23T06:07:01.822Z,10.70
2018-08-23T06:09:33.363Z,9.30
2018-08-23T06:12:02.985Z,8.23
2018-08-23T06:14:36.205Z,9.43
2018-08-23T06:20:39.222Z,9.47
2018-08-23T06:23:08.919Z,10.58
2018-08-23T06:25:39.637Z,10.77
2018-08-23T06:28:15.089Z,8.70
2018-08-23T06:30:45.226Z,8.77
2018-08-23T06:33:26.766Z,8.50
2018-08-23T06:35:56.398Z,9.70
2018-08-23T06:38:26.211Z,9.33
2018-08-23T06:40:58.026Z,7.80
2018-08-23T06:43:27.907Z,9.20
2018-08-23T06:45:57.586Z,8.68
2018-08-23T06:48:27.275Z,9.65
2018-08-23T06:50:58.267Z,10.25
2018-08-23T06:53:33.835Z,8.60
2018-08-23T06:56:03.361Z,9.05
2018-08-23T06:58:33.023Z,11.00
2018-08-23T07:01:04.771Z,8.33
2018-08-23T07:03:35.299Z,8.48
2018-08-23T07:06:05.162Z,8.70
2018-08-23T07:08:36.178Z,8.63
2018-08-23T07:11:13.483Z,9.38
2018-08-23T07:13:43.124Z,8.45
2018-08-23T07:16:12.743Z,9.68
2018-08-23T07:18:44.814Z,9.43
2018-08-23T07:21:15.565Z,8.53
2018-08-23T07:23:45.146Z,8.30
2018-08-23T07:26:14.803Z,8.43
2018-08-23T07:28:47.124Z,12.70
2018-08-23T07:31:16.749Z,10.35
2018-08-23T07:33:50.323Z,8.73
2018-08-23T07:36:29.669Z,8.28
2018-08-23T07:38:59.462Z,10.28
2018-08-23T07:41:31.189Z,8.50
2018-08-23T07:44:00.774Z,9.83
2018-08-23T07:46:30.421Z,8.10
2018-08-23T07:48:59.966Z,8.20
2018-08-23T07:51:29.558Z,8.58
2018-08-23T07:54:03.289Z,9.15
2018-08-23T07:59:00.253Z,10.43
2018-08-23T08:01:32.723Z,10.72
2018-08-23T08:04:03.390Z,8.18
2018-08-23T08:06:33.426Z,8.35
2018-08-23T08:09:03.017Z,9.88
2018-08-23T08:11:52.359Z,8.13
2018-08-23T08:14:26.990Z,8.40
2018-08-23T08:17:06.660Z,8.70
2018-08-23T08:19:43.550Z,9.60
2018-08-23T08:22:16.206Z,8.90
2018-08-23T08:24:46.934Z,8.63
2018-08-23T08:27:18.613Z,11.25
2018-08-23T08:29:49.775Z,9.25
2018-08-23T08:32:23.798Z,13.40
2018-08-23T08:35:01.552Z,10.10
2018-08-23T08:37:35.183Z,8.80
2018-08-23T08:40:14.024Z,11.48
2018-08-23T08:42:48.395Z,8.28
2018-08-23T08:45:19.889Z,12.50
2018-08-23T08:47:52.287Z,10.93
2018-08-23T08:50:23.736Z,9.88
2018-08-23T08:52:54.874Z,8.35
2018-08-23T08:55:26.544Z,9.73
2018-08-23T08:57:57.668Z,9.73
2018-08-23T09:00:32.464Z,10.95
2018-08-23T09:03:03.562Z,8.83
2018-08-23T09:05:34.910Z,11.08
2018-08-23T09:08:06.000Z,9.63
2018-08-23T09:10:37.481Z,11.68
2018-08-23T09:13:08.510Z,8.38
2018-08-23T09:15:39.105Z,10.00
2018-08-23T09:18:09.600Z,10.85
2018-08-23T09:20:40.752Z,12.25
2018-08-23T09:23:10.967Z,9.45
2018-08-23T09:25:41.911Z,10.13
2018-08-23T09:28:12.189Z,12.25
2018-08-23T09:30:42.570Z,9.23
2018-08-23T09:33:16.784Z,8.70
2018-08-23T09:35:46.664Z,9.25
2018-08-23T09:38:17.953Z,8.25
2018-08-23T09:40:47.564Z,8.55
2018-08-23T09:43:17.311Z,8.58
2018-08-23T09:45:46.929Z,9.63
2018-08-23T09:48:17.117Z,9.80
2018-08-23T09:50:47.700Z,10.65
2018-08-23T09:53:22.493Z,10.75
2018-08-23T09:55:52.624Z,10.53
2018-08-23T09:58:27.346Z,11.93
2018-08-23T10:01:01.899Z,14.20
2018-08-23T10:03:36.793Z,10.80
2018-08-23T10:06:11.444Z,9.73
2018-08-23T10:08:47.491Z,9.58
2018-08-23T10:11:22.188Z,10.35
2018-08-23T10:13:56.853Z,10.68
2018-08-23T10:16:31.549Z,9.68
2018-08-23T10:19:06.099Z,10.00
2018-08-23T10:21:40.769Z,9.93
2018-08-23T10:24:17.784Z,11.80
2018-08-23T10:26:47.389Z,14.40
2018-08-23T10:29:17.045Z,9.40
2018-08-23T10:31:46.620Z,10.75
2018-08-23T10:34:16.194Z,10.65
2018-08-23T10:36:45.737Z,8.78
2018-08-23T10:39:15.298Z,10.28
2018-08-23T10:41:45.055Z,9.43
2018-08-23T10:44:14.661Z,12.43
2018-08-23T10:46:49.312Z,10.38
2018-08-23T10:49:18.928Z,9.13
2018-08-23T10:51:48.816Z,12.98
2018-08-23T10:54:19.400Z,10.23
2018-08-23T10:56:49.348Z,9.93
2018-08-23T10:59:19.015Z,9.73
2018-08-23T11:01:49.040Z,8.78
2018-08-23T11:04:18.682Z,10.30
2018-08-23T11:06:53.506Z,8.88
2018-08-23T11:09:30.588Z,11.60
2018-08-23T11:12:00.217Z,9.50
2018-08-23T11:14:34.790Z,9.78
2018-08-23T11:17:09.493Z,9.33
2018-08-23T11:19:44.220Z,8.63
2018-08-23T11:22:13.784Z,9.38
2018-08-23T11:24:43.364Z,8.50
2018-08-23T11:27:12.914Z,9.93
2018-08-23T11:29:42.624Z,9.55
2018-08-23T11:32:12.213Z,8.83
2018-08-23T11:34:41.765Z,11.78
2018-08-23T11:37:11.275Z,12.20
2018-08-23T11:39:40.908Z,10.03
2018-08-23T11:42:10.492Z,8.90
2018-08-23T11:44:40.153Z,10.35
2018-08-23T11:47:09.711Z,8.25
2018-08-23T11:49:39.300Z,9.00
2018-08-23T11:52:08.880Z,8.95
2018-08-23T11:54:38.454Z,9.08
2018-08-23T11:57:08.041Z,9.73
2018-08-23T11:59:37.678Z,10.08
2018-08-23T12:02:07.659Z,9.58
2018-08-23T12:04:37.286Z,11.75
2018-08-23T12:07:06.869Z,9.05
2018-08-23T12:09:36.484Z,9.73
2018-08-23T12:12:06.157Z,8.98
2018-08-23T12:14:35.773Z,8.83
2018-08-23T12:17:05.702Z,9.65
2018-08-23T12:19:35.316Z,9.43
2018-08-23T12:22:05.034Z,8.68
2018-08-23T12:24:34.654Z,9.10
2018-08-23T12:27:04.248Z,9.13
2018-08-23T12:29:33.765Z,9.08
2018-08-23T12:32:03.362Z,9.23
2018-08-23T12:34:36.854Z,9.53
2018-08-23T12:37:11.751Z,9.15
2018-08-23T12:39:46.625Z,9.47
2018-08-23T12:42:21.204Z,8.93
2018-08-23T12:44:54.530Z,9.08
2018-08-23T12:47:24.127Z,9.18
2018-08-23T12:49:57.873Z,8.83
2018-08-23T12:52:27.474Z,8.90
2018-08-23T12:54:57.016Z,9.83
2018-08-23T12:57:26.625Z,9.48
2018-08-23T12:59:56.218Z,15.30
2018-08-23T13:02:26.930Z,16.93
2018-08-23T13:04:56.425Z,12.05
2018-08-23T13:07:26.114Z,8.90
2018-08-23T13:09:55.760Z,37.20
2018-08-23T13:12:25.335Z,13.43
2018-08-23T13:14:55.054Z,10.03
2018-08-23T13:17:24.977Z,10.67
2018-08-23T13:19:54.612Z,10.73
2018-08-23T13:22:29.377Z,9.08
2018-08-23T13:25:07.809Z,8.95
2018-08-23T13:27:42.459Z,10.68
2018-08-23T13:30:16.059Z,10.73
2018-08-23T13:32:45.648Z,11.10
2018-08-23T13:35:15.254Z,9.78
2018-08-23T13:37:46.196Z,12.60
2018-08-23T13:40:23.392Z,9.90
2018-08-23T13:42:53.792Z,6.23
2018-08-23T13:45:25.482Z,7.77
2018-08-23T13:47:56.333Z,6.73
2018-08-23T13:50:26.786Z,6.83
2018-08-23T13:52:56.365Z,6.90
2018-08-23T13:55:25.889Z,6.60
2018-08-23T13:57:55.556Z,7.57
2018-08-23T14:00:25.273Z,7.80
2018-08-23T14:02:55.029Z,9.90
2018-08-23T14:05:24.771Z,10.70
2018-08-23T14:10:23.819Z,9.17
2018-08-23T14:12:53.486Z,11.80
2018-08-23T14:15:28.249Z,9.50
2018-08-23T14:17:57.865Z,9.50
2018-08-23T14:20:27.440Z,10.40
2018-08-23T14:22:57.005Z,10.07
2018-08-23T14:25:26.586Z,10.60
2018-08-23T14:27:56.248Z,11.10
2018-08-23T14:30:25.820Z,10.17
2018-08-23T14:32:55.506Z,9.30
2018-08-23T14:35:25.098Z,9.07
2018-08-23T14:40:24.937Z,11.27
2018-08-23T14:42:54.538Z,8.60
2018-08-23T14:45:30.153Z,7.93
2018-08-23T14:48:04.690Z,7.40
2018-08-23T14:50:35.256Z,9.40
2018-08-23T14:53:05.878Z,10.27
2018-08-23T14:55:40.562Z,8.63
2018-08-23T14:58:11.104Z,8.50
2018-08-23T15:00:40.672Z,7.00
2018-08-23T15:03:10.242Z,6.37
2018-08-23T15:05:39.855Z,8.80
2018-08-23T15:08:09.449Z,6.85
2018-08-23T15:10:38.951Z,6.92
2018-08-23T15:13:08.518Z,6.25
2018-08-23T15:15:43.228Z,6.25
2018-08-23T15:18:12.772Z,7.25
2018-08-23T15:20:42.326Z,11.53
2018-08-23T15:23:11.924Z,8.03
2018-08-23T15:25:41.515Z,7.05
2018-08-23T15:28:11.196Z,6.08
2018-08-23T15:30:40.780Z,6.65
2018-08-23T15:33:10.396Z,10.10
2018-08-23T15:35:39.967Z,40.48
2018-08-23T15:38:09.551Z,46.15
2018-08-23T15:40:39.215Z,55.83
2018-08-23T15:43:08.748Z,31.48
2018-08-23T15:45:38.483Z,9.73
2018-08-23T15:48:08.138Z,8.85
2018-08-23T15:50:37.684Z,8.33
2018-08-23T15:53:07.336Z,37.00
2018-08-23T15:55:37.139Z,13.43
2018-08-23T15:58:07.226Z,6.30
2018-08-23T16:00:39.476Z,36.73
2018-08-23T16:03:09.409Z,9.98
2018-08-23T16:05:39.479Z,7.67
2018-08-23T16:08:09.091Z,6.78
2018-08-23T16:10:38.638Z,8.33
2018-08-23T16:13:08.263Z,7.12
2018-08-23T16:15:37.935Z,6.37
2018-08-23T16:18:12.589Z,11.97
2018-08-23T16:20:59.754Z,6.22
2018-08-23T16:23:29.552Z,6.55
2018-08-23T16:25:59.179Z,8.45
2018-08-23T16:28:28.820Z,7.72
2018-08-23T16:30:58.439Z,7.65
2018-08-23T16:33:27.967Z,7.08
2018-08-23T16:35:57.536Z,6.90
2018-08-23T16:38:27.122Z,6.65
2018-08-23T16:40:56.660Z,6.85
2018-08-23T16:43:26.492Z,8.30
2018-08-23T16:45:56.056Z,6.90
2018-08-23T16:48:25.632Z,6.42
2018-08-23T16:50:55.358Z,7.92
2018-08-23T16:53:25.003Z,9.45
2018-08-23T16:55:54.654Z,8.15
2018-08-23T16:58:24.312Z,9.95
2018-08-23T17:00:53.857Z,9.10
2018-08-23T17:03:23.489Z,11.35
2018-08-23T17:05:53.071Z,9.50
2018-08-23T17:08:22.811Z,8.53
2018-08-23T17:10:52.361Z,9.83
2018-08-23T17:13:27.031Z,10.93
2018-08-23T17:16:01.811Z,9.38
2018-08-23T17:18:31.579Z,7.15
2018-08-23T17:21:01.179Z,6.35
2018-08-23T17:23:30.816Z,8.65
2018-08-23T17:26:00.488Z,7.62
2018-08-23T17:28:30.129Z,7.42
2018-08-23T17:30:59.832Z,10.15
2018-08-23T17:33:29.373Z,8.83
2018-08-23T17:35:59.067Z,7.97
2018-08-23T17:38:30.278Z,9.90
2018-08-23T17:40:59.916Z,11.33
2018-08-23T17:43:29.693Z,7.47
2018-08-23T17:45:59.289Z,8.10
2018-08-23T17:48:28.949Z,8.90
2018-08-23T17:50:58.609Z,11.43
2018-08-23T17:53:28.147Z,11.97
2018-08-23T17:55:57.781Z,9.20
2018-08-23T17:58:27.346Z,8.95
2018-08-23T18:00:56.974Z,10.40
2018-08-23T18:03:26.633Z,11.18
2018-08-23T18:05:56.264Z,11.85
2018-08-23T18:08:25.928Z,10.35
2018-08-23T18:10:55.557Z,10.98
2018-08-23T18:13:25.235Z,13.70
2018-08-23T18:16:00.874Z,10.93
2018-08-23T18:18:30.588Z,14.05
2018-08-23T18:21:00.284Z,13.78
2018-08-23T18:23:30.044Z,14.58
2018-08-23T18:26:00.378Z,15.00
2018-08-23T18:28:30.875Z,14.38
2018-08-23T18:31:01.560Z,16.35
2018-08-23T18:33:32.020Z,13.25
2018-08-23T18:36:02.640Z,12.95
2018-08-23T18:38:39.914Z,14.45
2018-08-23T18:41:11.840Z,12.00
2018-08-23T18:43:46.390Z,14.53
2018-08-23T18:46:16.536Z,11.43
2018-08-23T18:48:46.378Z,11.73
2018-08-23T18:51:16.821Z,13.32
2018-08-23T18:53:47.029Z,11.12
2018-08-23T18:56:17.423Z,11.90
2018-08-23T18:58:47.794Z,11.05
2018-08-23T19:01:38.021Z,14.70
2018-08-23T19:04:22.741Z,17.85
2018-08-23T19:06:53.187Z,17.98
2018-08-23T19:09:23.525Z,17.23
2018-08-23T19:11:53.901Z,19.05
2018-08-23T19:14:24.250Z,17.60
2018-08-23T19:16:59.444Z,16.50
2018-08-23T19:19:29.801Z,19.70
2018-08-23T19:22:00.095Z,15.60
2018-08-23T19:24:30.509Z,15.28
2018-08-23T19:27:01.006Z,16.27
2018-08-23T19:29:31.500Z,17.85
2018-08-23T19:32:01.962Z,16.67
2018-08-23T19:34:32.295Z,19.52
2018-08-23T19:37:03.483Z,14.47
2018-08-23T19:39:33.883Z,19.85
2018-08-23T19:42:04.468Z,19.07
2018-08-23T19:44:38.091Z,18.10
2018-08-23T19:47:13.079Z,13.68
2018-08-23T19:49:48.161Z,14.13
2018-08-23T19:52:18.697Z,15.30
2018-08-23T19:54:49.088Z,17.70
2018-08-23T19:57:19.526Z,16.82
2018-08-23T19:59:49.926Z,13.55
2018-08-23T20:02:20.305Z,12.67
2018-08-23T20:04:50.640Z,15.23
2018-08-23T20:07:21.033Z,15.10
2018-08-23T20:09:51.331Z,13.30
2018-08-23T20:12:21.764Z,11.93
2018-08-23T20:14:52.069Z,13.40
2018-08-23T20:17:22.427Z,11.67
2018-08-23T20:19:52.803Z,11.43
2018-08-23T20:22:23.173Z,11.73
2018-08-23T20:24:53.502Z,11.55
2018-08-23T20:27:23.660Z,12.27
2018-08-23T20:29:53.922Z,12.93
2018-08-23T20:32:24.016Z,11.73
2018-08-23T20:34:54.264Z,12.20
2018-08-23T20:37:24.579Z,11.80
2018-08-23T20:39:54.835Z,13.63
2018-08-23T20:42:25.058Z,11.83
2018-08-23T20:44:55.191Z,12.55
2018-08-23T20:47:25.411Z,15.13
2018-08-23T20:49:55.508Z,12.70
2018-08-23T20:52:25.685Z,12.73
2018-08-23T20:54:55.490Z,12.53
2018-08-23T20:57:25.191Z,13.30
2018-08-23T20:59:54.853Z,11.83
2018-08-23T21:02:24.377Z,11.73
2018-08-23T21:04:53.999Z,12.03
2018-08-23T21:07:23.648Z,12.20
2018-08-23T21:09:53.353Z,11.83
2018-08-23T21:12:22.876Z,11.23
2018-08-23T21:14:52.442Z,11.83
2018-08-23T21:17:22.054Z,12.50
2018-08-23T21:19:51.653Z,13.17
2018-08-23T21:22:21.178Z,14.30
2018-08-23T21:24:50.675Z,13.37
2018-08-23T21:27:20.230Z,14.13
2018-08-23T21:29:49.865Z,13.30
2018-08-23T21:32:19.442Z,14.07
2018-08-23T21:34:48.948Z,13.43
2018-08-23T21:37:18.533Z,14.03
2018-08-23T21:39:48.178Z,15.13
2018-08-23T21:42:17.755Z,14.43
2018-08-23T21:44:47.428Z,14.53
2018-08-23T21:47:17.194Z,13.90
2018-08-23T21:52:06.917Z,12.97
2018-08-23T21:54:36.470Z,13.80
2018-08-23T21:57:06.006Z,13.03
2018-08-23T21:59:35.604Z,13.60
2018-08-23T22:02:10.313Z,12.47
2018-08-23T22:04:45.067Z,14.10
2018-08-23T22:07:14.753Z,12.33
2018-08-23T22:09:48.686Z,11.97
2018-08-23T22:12:20.239Z,13.13
2018-08-23T22:14:50.467Z,13.10
2018-08-23T22:17:20.797Z,14.33
2018-08-23T22:19:51.130Z,12.77
2018-08-23T22:22:20.759Z,12.50
2018-08-23T22:24:50.365Z,14.10
2018-08-23T22:27:19.991Z,13.33
2018-08-23T22:29:49.603Z,12.90
2018-08-23T22:32:19.276Z,14.20
2018-08-23T22:34:48.873Z,12.83
2018-08-23T22:37:18.514Z,13.07
2018-08-23T22:39:48.131Z,13.67
2018-08-23T22:42:17.695Z,13.50
2018-08-23T22:44:47.219Z,16.93
2018-08-23T22:47:16.856Z,13.60
2018-08-23T22:49:46.385Z,14.80
2018-08-23T22:52:15.922Z,14.43
2018-08-23T22:54:45.557Z,13.27
2018-08-23T22:57:15.072Z,15.13
2018-08-23T22:59:44.957Z,14.53
2018-08-23T23:02:22.423Z,15.53
2018-08-23T23:04:51.975Z,14.47
2018-08-23T23:07:21.528Z,14.30
2018-08-23T23:09:51.044Z,15.27
2018-08-23T23:12:20.706Z,15.20
2018-08-23T23:14:50.330Z,15.67
2018-08-23T23:17:19.845Z,14.50
2018-08-23T23:19:49.419Z,14.53
2018-08-23T23:22:19.039Z,14.70
2018-08-23T23:24:53.603Z,13.83
2018-08-23T23:27:23.205Z,13.80
2018-08-23T23:29:52.801Z,14.50
2018-08-23T23:32:22.415Z,13.87
2018-08-23T23:34:52.067Z,14.60
2018-08-23T23:37:21.612Z,13.97
2018-08-23T23:39:51.129Z,12.93
2018-08-23T23:42:20.699Z,15.47
2018-08-23T23:44:50.302Z,14.60
2018-08-23T23:47:19.924Z,15.87
2018-08-23T23:49:49.576Z,14.33
2018-08-23T23:52:19.130Z,14.67
2018-08-23T23:54:48.712Z,14.47
2018-08-23T23:57:18.327Z,14.43
2018-08-23T23:59:47.900Z,15.10
